Time;durP1;ratioP1;P1;durP2;ratioP2;P2;SDS_P1;SDS_P2;PMS_P1;PMS_P2;Temp;Humidity;BMP_temperature;BMP_pressure;BME280_temperature;BME280_humidity;BME280_pressure;Samples;Min_cycle;Max_cycle;Signal;HPM_P1;HPM_P2
2022/06/18 00:01:37;;;;;;;1.13;0.68;;;19.00;50.30;;;;;;4991160;28;20076;-74
2022/06/18 00:04:13;;;;;;;1.08;0.75;;;19.00;50.60;;;;;;4999643;28;20363;-74
2022/06/18 00:06:44;;;;;;;1.63;0.60;;;18.90;50.40;;;;;;5008085;28;20116;-74
2022/06/18 00:09:13;;;;;;;;;;;18.90;50.60;;;;;;5009645;28;20380;-73
2022/06/18 00:14:22;;;;;;;0.90;0.60;;;18.80;50.30;;;;;;5009536;28;20067;-73
2022/06/18 00:16:48;;;;;;;1.30;0.60;;;18.70;50.50;;;;;;4991763;28;20067;-73
2022/06/18 00:19:13;;;;;;;0.60;0.50;;;18.70;50.80;;;;;;5020443;28;20053;-74
2022/06/18 00:21:39;;;;;;;2.28;0.60;;;18.60;50.90;;;;;;4989702;28;20054;-73
2022/06/18 00:24:16;;;;;;;1.40;0.70;;;18.60;51.00;;;;;;5000432;28;20102;-73
2022/06/18 00:26:45;;;;;;;1.20;0.70;;;18.60;51.60;;;;;;5021343;28;20502;-74
2022/06/18 00:29:15;;;;;;;1.15;0.80;;;18.50;51.30;;;;;;4999993;28;20045;-74
2022/06/18 00:31:41;;;;;;;1.02;0.70;;;18.40;51.50;;;;;;5014514;28;20044;-73
2022/06/18 00:34:07;;;;;;;1.60;0.88;;;18.40;51.50;;;;;;5000692;28;20435;-73
2022/06/18 00:36:32;;;;;;;1.77;0.70;;;18.30;51.60;;;;;;5017927;28;20107;-73
2022/06/18 00:38:58;;;;;;;0.68;0.65;;;18.30;51.70;;;;;;5036431;28;20116;-73
2022/06/18 00:41:25;;;;;;;1.20;0.80;;;18.30;51.90;;;;;;5003569;28;20068;-74
2022/06/18 00:44:07;;;;;;;0.80;0.80;;;18.20;52.10;;;;;;4980224;28;20049;-73
2022/06/18 00:46:49;;;;;;;1.67;0.80;;;18.20;52.50;;;;;;4980638;28;20037;-73
2022/06/18 00:49:32;;;;;;;1.40;0.90;;;18.20;52.40;;;;;;5017740;28;20048;-73
2022/06/18 00:52:04;;;;;;;1.52;0.80;;;18.10;52.70;;;;;;5000734;28;20125;-73
2022/06/18 00:54:56;;;;;;;3.08;0.60;;;18.10;52.50;;;;;;5013124;28;20045;-73
2022/06/18 00:57:36;;;;;;;0.80;0.80;;;18.00;52.60;;;;;;4994446;28;20133;-73
2022/06/18 01:00:11;;;;;;;1.20;0.70;;;18.00;52.90;;;;;;4990973;28;20041;-73
2022/06/18 01:02:39;;;;;;;1.67;0.70;;;18.00;52.90;;;;;;5002244;28;20107;-73
2022/06/18 01:05:14;;;;;;;1.88;0.60;;;17.90;53.10;;;;;;4972510;28;20033;-73
2022/06/18 01:07:40;;;;;;;1.88;0.88;;;17.90;53.40;;;;;;5024082;28;20042;-73
2022/06/18 01:10:13;;;;;;;2.35;0.80;;;17.80;53.00;;;;;;5007169;28;20087;-73
2022/06/18 01:12:38;;;;;;;1.80;0.82;;;17.80;53.20;;;;;;4996323;28;20040;-73
2022/06/18 01:15:08;;;;;;;0.88;0.70;;;17.80;53.40;;;;;;5020048;28;20029;-74
2022/06/18 01:17:34;;;;;;;1.52;0.80;;;17.70;53.50;;;;;;4988349;28;20625;-73
2022/06/18 01:20:04;;;;;;;0.70;0.70;;;17.70;53.50;;;;;;5011116;28;20053;-73
2022/06/18 01:22:34;;;;;;;1.10;0.90;;;17.60;53.80;;;;;;4989339;28;20057;-73
2022/06/18 01:25:00;;;;;;;2.05;0.80;;;17.60;53.90;;;;;;5009768;28;20033;-73
2022/06/18 01:27:26;;;;;;;1.73;0.73;;;17.60;54.00;;;;;;5025924;28;20051;-74
2022/06/18 01:29:53;;;;;;;4.57;1.13;;;17.50;54.00;;;;;;5024635;28;20037;-74
2022/06/18 01:32:19;;;;;;;3.30;0.60;;;17.50;54.10;;;;;;4996370;28;20037;-74
2022/06/18 01:34:45;;;;;;;2.50;0.90;;;17.50;54.30;;;;;;5027234;28;20032;-73
2022/06/18 01:37:10;;;;;;;0.77;0.70;;;17.40;54.50;;;;;;5025413;28;20030;-73
2022/06/18 01:39:37;;;;;;;2.20;0.73;;;17.40;54.50;;;;;;4988552;28;20112;-74
2022/06/18 01:42:26;;;;;;;0.70;0.70;;;17.30;54.50;;;;;;5017162;28;20025;-74
2022/06/18 01:44:55;;;;;;;1.48;0.80;;;17.30;55.80;;;;;;5009348;28;20542;-73
2022/06/18 01:47:51;;;;;;;2.15;0.82;;;17.20;54.70;;;;;;5010544;28;20033;-74
2022/06/18 01:50:21;;;;;;;1.35;0.70;;;17.20;55.10;;;;;;5029658;28;20037;-73
2022/06/18 01:52:48;;;;;;;1.83;1.02;;;17.20;54.90;;;;;;5028219;28;20026;-74
2022/06/18 01:55:20;;;;;;;1.42;1.00;;;17.20;55.10;;;;;;4996964;28;20033;-74
2022/06/18 01:57:48;;;;;;;1.73;0.70;;;17.10;55.20;;;;;;5006687;28;20037;-74
2022/06/18 02:00:17;;;;;;;2.40;0.80;;;17.10;55.20;;;;;;5002195;28;20037;-73
2022/06/18 02:02:42;;;;;;;2.92;0.98;;;17.00;55.30;;;;;;5016780;28;20510;-73
2022/06/18 02:05:08;;;;;;;2.72;0.90;;;17.00;55.40;;;;;;5041237;28;20043;-74
2022/06/18 02:07:34;;;;;;;1.92;0.90;;;17.00;55.60;;;;;;5012688;28;20038;-74
2022/06/18 02:10:03;;;;;;;1.95;0.75;;;16.90;55.50;;;;;;5025211;28;20037;-74
2022/06/18 02:12:32;;;;;;;2.60;0.70;;;16.90;55.80;;;;;;5002970;28;20036;-74
2022/06/18 02:15:00;;;;;;;1.20;0.93;;;16.80;55.90;;;;;;5023926;28;20093;-74
2022/06/18 02:17:26;;;;;;;1.02;0.77;;;16.80;56.10;;;;;;5019192;28;20120;-73
2022/06/18 02:20:10;;;;;;;1.05;0.70;;;16.80;56.10;;;;;;5001631;28;20050;-73
2022/06/18 02:22:44;;;;;;;3.00;0.73;;;16.70;56.60;;;;;;4995273;28;20034;-73
2022/06/18 02:25:10;;;;;;;2.92;0.80;;;16.70;56.50;;;;;;4994999;28;20581;-74
2022/06/18 02:27:36;;;;;;;1.63;1.13;;;16.70;56.30;;;;;;4996430;28;20058;-74
2022/06/18 02:30:02;;;;;;;4.65;1.00;;;16.70;56.60;;;;;;5021108;28;20041;-73
2022/06/18 02:32:52;;;;;;;1.48;0.82;;;16.60;56.70;;;;;;4999329;28;20136;-73
2022/06/18 02:35:18;;;;;;;0.70;0.70;;;16.60;57.40;;;;;;5009320;28;20069;-73
2022/06/18 02:37:45;;;;;;;1.05;0.80;;;16.60;56.90;;;;;;5012652;28;20049;-73
2022/06/18 02:40:18;;;;;;;0.98;0.73;;;16.50;57.00;;;;;;5001300;28;20051;-73
2022/06/18 02:42:44;;;;;;;1.25;0.90;;;16.50;57.20;;;;;;5007159;28;20037;-73
2022/06/18 02:45:10;;;;;;;1.35;0.80;;;16.40;57.20;;;;;;5024044;28;20029;-73
2022/06/18 02:47:35;;;;;;;1.40;0.90;;;16.40;57.20;;;;;;5010826;28;20037;-74
2022/06/18 02:50:03;;;;;;;2.08;0.80;;;16.40;57.30;;;;;;5000765;28;20044;-74
2022/06/18 02:52:34;;;;;;;2.92;0.98;;;16.40;57.50;;;;;;5012199;28;20056;-74
2022/06/18 02:55:01;;;;;;;0.75;0.60;;;16.30;57.60;;;;;;5015306;28;20037;-74
2022/06/18 02:57:27;;;;;;;1.52;0.90;;;16.30;57.70;;;;;;5006234;28;20037;-74
2022/06/18 02:59:52;;;;;;;1.50;1.00;;;16.30;57.80;;;;;;5010305;28;20044;-73
2022/06/18 03:02:18;;;;;;;2.38;1.00;;;16.20;57.90;;;;;;5011082;28;20037;-73
2022/06/18 03:04:43;;;;;;;2.08;0.90;;;16.20;58.00;;;;;;5010723;28;20034;-73
2022/06/18 03:07:09;;;;;;;0.82;0.82;;;16.20;58.00;;;;;;5039706;28;20090;-73
2022/06/18 03:12:06;;;;;;;1.15;0.82;;;16.10;58.10;;;;;;5004462;28;20125;-72
2022/06/18 03:12:20;;;;;;;1.58;0.80;;;16.10;58.20;;;;;;5031391;28;20033;-73
2022/06/18 03:14:46;;;;;;;1.20;1.05;;;16.10;58.30;;;;;;4988211;28;20036;-73
2022/06/18 03:17:11;;;;;;;0.93;0.70;;;16.10;58.40;;;;;;5012141;28;20030;-73
2022/06/18 03:19:39;;;;;;;1.00;0.90;;;16.00;58.40;;;;;;5030197;28;20026;-73
2022/06/18 03:22:16;;;;;;;1.17;0.90;;;16.00;58.60;;;;;;5013566;28;20056;-73
2022/06/18 03:24:42;;;;;;;2.05;0.85;;;16.00;58.70;;;;;;5011056;28;20036;-72
2022/06/18 03:27:09;;;;;;;3.03;0.90;;;15.90;58.70;;;;;;5008821;28;20021;-73
2022/06/18 03:29:34;;;;;;;1.70;0.88;;;15.90;58.80;;;;;;5007679;28;20120;-73
2022/06/18 03:32:03;;;;;;;1.27;1.10;;;15.90;58.80;;;;;;4993799;28;20695;-73
2022/06/18 03:34:28;;;;;;;1.77;1.10;;;15.90;59.10;;;;;;5013370;28;20033;-73
2022/06/18 03:36:54;;;;;;;1.50;1.40;;;15.90;59.10;;;;;;5010263;28;20021;-74
2022/06/18 03:39:20;;;;;;;1.33;1.00;;;15.80;59.20;;;;;;5027738;28;20033;-73
2022/06/18 03:41:45;;;;;;;0.90;0.90;;;15.80;59.30;;;;;;4990011;28;20466;-73
2022/06/18 03:44:11;;;;;;;1.42;0.88;;;15.80;59.40;;;;;;5017323;28;20395;-74
2022/06/18 03:46:37;;;;;;;1.73;1.02;;;15.80;59.50;;;;;;5007787;28;20674;-73
2022/06/18 03:49:03;;;;;;;2.05;1.10;;;15.70;59.40;;;;;;4991187;28;20034;-73
2022/06/18 03:51:29;;;;;;;1.58;1.20;;;15.70;59.60;;;;;;5005498;28;20434;-73
2022/06/18 03:53:54;;;;;;;1.85;1.08;;;15.70;59.60;;;;;;5020351;28;20044;-73
2022/06/18 03:56:22;;;;;;;1.33;0.90;;;15.70;59.80;;;;;;5008875;28;20056;-73
2022/06/18 03:58:48;;;;;;;4.63;1.20;;;15.70;60.00;;;;;;5022948;28;20030;-73
2022/06/18 04:01:16;;;;;;;1.15;0.90;;;15.60;59.90;;;;;;4989264;28;20076;-73
2022/06/18 04:03:41;;;;;;;1.27;1.10;;;15.60;60.20;;;;;;5008035;28;20040;-73
2022/06/18 04:06:09;;;;;;;0.85;0.80;;;15.60;60.10;;;;;;5035036;28;20484;-73
2022/06/18 04:08:35;;;;;;;2.63;0.85;;;15.60;60.20;;;;;;5006454;28;20117;-73
2022/06/18 04:11:00;;;;;;;2.20;1.02;;;15.60;60.30;;;;;;5025668;28;20048;-73
2022/06/18 04:13:28;;;;;;;1.00;0.90;;;15.60;60.40;;;;;;5007371;28;20041;-73
2022/06/18 04:15:54;;;;;;;1.00;0.90;;;15.60;60.50;;;;;;5001868;28;20033;-73
2022/06/18 04:18:20;;;;;;;2.63;0.90;;;15.60;60.90;;;;;;5001702;28;20045;-72
2022/06/18 04:20:45;;;;;;;1.38;1.00;;;15.60;60.80;;;;;;5027804;28;20048;-73
2022/06/18 04:23:11;;;;;;;1.10;0.95;;;15.60;61.00;;;;;;5038733;28;20033;-73
2022/06/18 04:25:38;;;;;;;1.20;0.90;;;15.60;61.20;;;;;;4984710;28;20037;-73
2022/06/18 04:28:03;;;;;;;2.30;1.20;;;15.60;61.20;;;;;;5006068;28;20051;-73
2022/06/18 04:30:30;;;;;;;1.00;1.00;;;15.60;61.30;;;;;;4974332;28;21251;-73
2022/06/18 04:32:56;;;;;;;2.65;0.95;;;15.60;61.30;;;;;;5024094;28;20033;-73
2022/06/18 04:35:21;;;;;;;1.08;0.98;;;15.60;61.80;;;;;;5004231;28;20038;-73
2022/06/18 04:37:48;;;;;;;0.88;0.80;;;15.60;61.80;;;;;;5020663;28;20040;-72
2022/06/18 04:40:16;;;;;;;2.05;1.10;;;15.60;62.10;;;;;;5001847;28;20058;-73
2022/06/18 04:42:42;;;;;;;1.45;0.90;;;15.60;62.10;;;;;;4994525;28;20679;-74
2022/06/18 04:45:08;;;;;;;1.33;1.02;;;15.60;62.30;;;;;;5032766;28;20037;-73
2022/06/18 04:47:34;;;;;;;1.83;1.00;;;15.70;62.60;;;;;;5006428;28;20045;-73
2022/06/18 04:49:59;;;;;;;2.30;1.10;;;15.70;62.60;;;;;;4986299;28;20064;-70
2022/06/18 04:52:25;;;;;;;2.00;1.20;;;15.70;62.60;;;;;;5017573;28;20116;-71
2022/06/18 04:54:52;;;;;;;0.90;0.90;;;15.80;62.80;;;;;;5001770;28;20113;-70
2022/06/18 04:57:19;;;;;;;2.72;1.20;;;15.80;62.60;;;;;;5009584;28;20060;-70
2022/06/18 04:59:44;;;;;;;1.45;1.00;;;15.80;62.70;;;;;;5018760;28;20044;-71
2022/06/18 05:02:22;;;;;;;2.10;1.10;;;15.80;62.80;;;;;;5019501;28;20038;-69
2022/06/18 05:04:48;;;;;;;3.08;1.20;;;15.90;63.50;;;;;;5016925;28;20030;-70
2022/06/18 05:07:13;;;;;;;1.92;1.38;;;15.90;63.10;;;;;;5001904;28;20036;-70
2022/06/18 05:09:39;;;;;;;6.68;1.58;;;16.00;63.40;;;;;;5011569;28;20172;-71
2022/06/18 05:12:05;;;;;;;3.92;1.58;;;16.00;63.50;;;;;;5015322;28;20038;-70
2022/06/18 05:14:31;;;;;;;1.40;1.30;;;16.00;63.60;;;;;;4999103;28;20534;-71
2022/06/18 05:16:57;;;;;;;2.15;1.35;;;16.10;63.90;;;;;;4990158;28;20038;-71
2022/06/18 05:19:25;;;;;;;3.17;1.67;;;16.20;64.10;;;;;;5007554;28;20037;-70
2022/06/18 05:21:51;;;;;;;1.67;1.58;;;16.30;64.90;;;;;;4987836;28;20037;-70
2022/06/18 05:24:17;;;;;;;3.17;1.90;;;16.30;64.10;;;;;;4988847;28;20486;-70
2022/06/18 05:26:44;;;;;;;3.33;2.13;;;16.30;64.20;;;;;;4991588;28;20038;-72
2022/06/18 05:29:10;;;;;;;2.08;1.73;;;16.40;64.30;;;;;;4998655;28;21045;-74
2022/06/18 05:31:36;;;;;;;2.08;1.88;;;16.50;64.40;;;;;;5009449;28;20121;-73
2022/06/18 05:34:03;;;;;;;3.15;1.95;;;16.50;64.30;;;;;;5013848;28;20058;-73
2022/06/18 05:36:29;;;;;;;2.58;1.73;;;16.60;64.60;;;;;;5038228;28;20092;-73
2022/06/18 05:38:54;;;;;;;2.72;1.90;;;16.70;64.60;;;;;;5006851;28;20129;-73
2022/06/18 05:41:20;;;;;;;2.38;1.75;;;16.70;64.60;;;;;;5029266;28;20544;-73
2022/06/18 05:43:45;;;;;;;5.47;1.73;;;16.80;64.50;;;;;;5039265;28;20040;-74
2022/06/18 05:46:11;;;;;;;3.58;1.90;;;16.90;64.50;;;;;;5038325;28;20037;-73
2022/06/18 05:48:37;;;;;;;2.53;1.98;;;16.90;64.40;;;;;;5010150;28;20044;-73
2022/06/18 05:51:04;;;;;;;3.55;2.72;;;17.00;64.60;;;;;;4999487;28;20120;-72
2022/06/18 05:53:30;;;;;;;4.43;1.60;;;17.10;64.50;;;;;;5009277;28;20048;-74
2022/06/18 05:55:56;;;;;;;2.70;1.70;;;17.20;64.60;;;;;;4994010;28;20042;-72
2022/06/18 05:58:21;;;;;;;2.53;2.13;;;17.30;64.40;;;;;;5019683;28;20695;-73
2022/06/18 06:00:47;;;;;;;2.40;1.77;;;17.40;64.30;;;;;;5019619;28;20049;-72
2022/06/18 06:03:12;;;;;;;4.45;1.98;;;17.50;64.30;;;;;;5026495;28;20060;-73
2022/06/18 06:05:38;;;;;;;2.90;1.98;;;17.60;64.90;;;;;;5003853;28;20066;-74
2022/06/18 06:08:04;;;;;;;3.65;1.95;;;17.70;63.90;;;;;;5010816;28;20084;-74
2022/06/18 06:13:16;;;;;;;2.90;1.90;;;17.90;63.60;;;;;;5004575;28;20576;-73
2022/06/18 06:15:42;;;;;;;5.38;1.73;;;18.00;63.30;;;;;;5002308;28;20034;-73
2022/06/18 06:18:13;;;;;;;3.88;1.75;;;18.20;63.30;;;;;;5016404;28;20034;-73
2022/06/18 06:20:40;;;;;;;3.28;1.80;;;18.30;63.00;;;;;;5003998;28;20038;-74
2022/06/18 06:23:06;;;;;;;3.80;2.25;;;18.40;62.80;;;;;;5020785;28;20041;-73
2022/06/18 06:25:32;;;;;;;3.47;1.70;;;18.60;62.80;;;;;;5008788;28;20037;-74
2022/06/18 06:27:58;;;;;;;4.60;1.70;;;18.70;62.50;;;;;;5011844;28;20594;-73
2022/06/18 06:30:23;;;;;;;1.80;1.33;;;18.80;62.30;;;;;;5008994;28;20502;-73
2022/06/18 06:32:49;;;;;;;2.03;1.55;;;18.90;62.10;;;;;;5009302;28;20576;-74
2022/06/18 06:35:14;;;;;;;3.78;1.58;;;19.10;62.00;;;;;;4990494;28;20064;-74
2022/06/18 06:37:40;;;;;;;3.38;1.60;;;19.30;62.70;;;;;;5016270;28;20054;-74
2022/06/18 06:40:06;;;;;;;3.40;1.95;;;19.40;61.60;;;;;;5007409;28;20038;-74
2022/06/18 06:42:42;;;;;;;4.50;1.63;;;19.60;61.40;;;;;;4997046;28;20474;-73
2022/06/18 06:45:15;;;;;;;1.85;1.50;;;19.70;61.20;;;;;;5018168;28;20026;-73
2022/06/18 06:47:41;;;;;;;2.00;1.45;;;19.90;61.00;;;;;;5008337;28;20034;-73
2022/06/18 06:50:07;;;;;;;1.70;1.50;;;20.10;60.70;;;;;;5025011;28;20072;-73
2022/06/18 06:52:32;;;;;;;5.07;1.55;;;20.20;60.40;;;;;;4999267;28;20045;-74
2022/06/18 06:57:43;;;;;;;3.47;2.20;;;20.60;59.70;;;;;;5013373;28;20541;-74
2022/06/18 07:00:09;;;;;;;3.22;1.55;;;20.70;59.40;;;;;;5038374;28;20304;-73
2022/06/18 07:02:35;;;;;;;2.55;2.10;;;20.90;59.20;;;;;;5007311;28;20113;-75
2022/06/18 07:05:01;;;;;;;1.98;1.70;;;21.10;59.10;;;;;;5020096;28;20133;-74
2022/06/18 07:07:26;;;;;;;2.78;1.42;;;21.20;58.80;;;;;;5024369;28;20067;-74
2022/06/18 07:09:52;;;;;;;4.45;2.13;;;21.50;58.60;;;;;;5016874;28;20545;-74
2022/06/18 07:12:17;;;;;;;5.20;1.60;;;21.60;58.30;;;;;;4994143;28;20025;-74
2022/06/18 07:14:43;;;;;;;3.67;2.03;;;21.80;58.00;;;;;;5004998;28;20022;-74
2022/06/18 07:17:17;;;;;;;4.50;1.95;;;22.00;57.70;;;;;;5029760;28;20253;-74
2022/06/18 07:19:42;;;;;;;4.95;1.50;;;22.10;57.40;;;;;;5017052;28;20060;-74
2022/06/18 07:22:13;;;;;;;5.22;1.55;;;22.30;57.10;;;;;;5023026;28;20121;-73
2022/06/18 07:24:39;;;;;;;2.38;1.30;;;22.50;56.80;;;;;;5016252;28;20041;-74
2022/06/18 07:27:04;;;;;;;1.65;1.50;;;22.70;56.50;;;;;;5039236;28;20112;-74
2022/06/18 07:29:30;;;;;;;2.95;1.33;;;22.90;56.20;;;;;;5004332;28;20098;-73
2022/06/18 07:32:07;;;;;;;2.67;1.33;;;23.10;55.90;;;;;;5015607;28;20099;-73
2022/06/18 07:34:32;;;;;;;1.48;1.38;;;23.30;55.60;;;;;;5026685;28;20051;-73
2022/06/18 07:36:58;;;;;;;2.78;1.67;;;23.50;55.30;;;;;;5025303;28;20643;-73
2022/06/18 07:39:23;;;;;;;2.05;1.40;;;23.70;55.00;;;;;;5014195;28;20648;-74
2022/06/18 07:41:53;;;;;;;2.10;1.75;;;23.90;54.70;;;;;;5012787;28;20253;-74
2022/06/18 07:44:18;;;;;;;1.95;1.55;;;24.10;54.40;;;;;;5016666;28;20032;-75
2022/06/18 07:46:45;;;;;;;1.83;1.58;;;24.30;54.10;;;;;;5015632;28;20041;-74
2022/06/18 07:49:11;;;;;;;2.30;1.55;;;24.50;53.90;;;;;;5011172;28;20030;-74
2022/06/18 07:51:36;;;;;;;2.20;1.45;;;24.70;53.50;;;;;;5027255;28;20040;-74
2022/06/18 07:54:02;;;;;;;2.13;1.42;;;24.90;53.20;;;;;;5011975;28;20044;-74
2022/06/18 07:56:28;;;;;;;1.65;1.20;;;25.10;53.00;;;;;;5015004;28;20040;-74
2022/06/18 07:58:53;;;;;;;2.10;1.30;;;25.30;52.70;;;;;;5024696;28;20037;-74
2022/06/18 08:01:19;;;;;;;1.35;1.25;;;25.50;52.40;;;;;;5010842;28;20041;-75
2022/06/18 08:03:44;;;;;;;2.03;1.48;;;25.70;52.10;;;;;;5014435;28;20033;-74
2022/06/18 08:06:10;;;;;;;1.85;1.08;;;25.90;51.80;;;;;;5008747;28;20534;-74
2022/06/18 08:08:36;;;;;;;3.72;1.20;;;26.10;51.50;;;;;;5011395;28;20057;-74
2022/06/18 08:11:02;;;;;;;3.75;1.70;;;26.30;51.10;;;;;;5002045;28;20437;-74
2022/06/18 08:13:28;;;;;;;3.35;1.20;;;26.60;50.80;;;;;;4976399;28;20037;-74
2022/06/18 08:15:53;;;;;;;3.53;1.45;;;26.70;50.40;;;;;;4995789;28;20099;-74
2022/06/18 08:18:19;;;;;;;1.63;1.50;;;27.00;50.10;;;;;;5015703;28;20116;-75
2022/06/18 08:20:44;;;;;;;1.65;1.30;;;27.10;49.90;;;;;;4985282;28;20030;-74
2022/06/18 08:23:11;;;;;;;2.55;1.50;;;27.40;49.60;;;;;;5024953;28;20075;-74
2022/06/18 08:25:37;;;;;;;2.67;1.30;;;27.50;49.30;;;;;;4977632;28;20046;-74
2022/06/18 08:28:04;;;;;;;1.40;1.30;;;27.70;48.90;;;;;;5003858;28;20104;-75
2022/06/18 08:30:29;;;;;;;2.47;1.27;;;28.00;48.70;;;;;;5011593;28;20038;-75
2022/06/18 08:32:55;;;;;;;1.95;1.70;;;28.20;48.30;;;;;;4993783;28;20383;-74
2022/06/18 08:35:20;;;;;;;1.27;1.17;;;28.40;48.00;;;;;;5007513;28;20056;-74
2022/06/18 08:37:46;;;;;;;4.88;1.70;;;28.60;47.60;;;;;;5003284;28;20038;-74
2022/06/18 08:40:34;;;;;;;2.65;1.20;;;28.80;47.30;;;;;;4995915;28;20046;-74
2022/06/18 08:43:11;;;;;;;2.20;1.63;;;29.10;47.10;;;;;;5009952;28;20552;-74
2022/06/18 08:46:12;;;;;;;1.45;1.10;;;29.30;46.70;;;;;;4989126;28;20033;-74
2022/06/18 08:49:00;;;;;;;3.08;1.85;;;29.60;46.80;;;;;;4980155;28;20197;-75
2022/06/18 08:51:35;;;;;;;9.20;1.67;;;29.80;45.50;;;;;;5026290;28;20569;-73
2022/06/18 08:54:09;;;;;;;4.00;1.35;;;30.00;45.50;;;;;;4974058;28;20087;-74
2022/06/18 08:56:45;;;;;;;2.97;1.40;;;30.20;45.20;;;;;;4985913;28;20060;-74
2022/06/18 08:59:46;;;;;;;3.20;1.30;;;30.50;45.10;;;;;;4994138;28;20030;-75
2022/06/18 09:02:15;;;;;;;1.85;1.33;;;30.70;44.50;;;;;;4988836;28;20101;-75
2022/06/18 09:05:03;;;;;;;1.67;1.20;;;30.90;44.50;;;;;;5020216;28;20050;-74
2022/06/18 09:07:43;;;;;;;1.23;1.00;;;31.10;43.60;;;;;;4997001;28;20509;-74
2022/06/18 09:10:45;;;;;;;2.78;0.90;;;31.40;43.10;;;;;;4991027;28;20029;-74
2022/06/18 09:13:15;;;;;;;0.82;0.82;;;31.60;40.90;;;;;;5013248;28;20030;-74
2022/06/18 09:15:43;;;;;;;0.93;0.80;;;31.90;41.20;;;;;;4974150;28;20534;-75
2022/06/18 09:18:18;;;;;;;3.40;1.05;;;32.10;40.50;;;;;;4991349;28;20063;-74
2022/06/18 09:20:55;;;;;;;1.73;0.90;;;32.40;39.00;;;;;;4975946;28;20037;-75
2022/06/18 09:23:29;;;;;;;5.22;1.33;;;32.60;39.20;;;;;;5011448;28;20045;-75
2022/06/18 09:25:56;;;;;;;3.70;1.00;;;32.80;38.00;;;;;;4980881;28;20038;-74
2022/06/18 09:28:27;;;;;;;1.75;1.00;;;33.00;38.20;;;;;;5003500;28;20026;-75
2022/06/18 09:31:00;;;;;;;0.70;0.70;;;33.10;37.40;;;;;;4994469;28;20113;-75
2022/06/18 09:33:36;;;;;;;1.33;0.80;;;33.30;37.00;;;;;;4982534;28;20117;-74
2022/06/18 09:36:11;;;;;;;2.25;0.63;;;33.50;36.60;;;;;;4991532;28;20062;-75
2022/06/18 09:38:43;;;;;;;1.70;0.90;;;33.70;35.90;;;;;;5009141;28;20074;-75
2022/06/18 09:41:34;;;;;;;1.45;1.00;;;33.80;36.00;;;;;;5001600;28;20037;-76
2022/06/18 09:44:06;;;;;;;0.98;0.82;;;34.10;34.80;;;;;;4957078;28;20049;-75
2022/06/18 09:46:42;;;;;;;3.22;1.40;;;34.20;35.90;;;;;;4993709;28;20045;-74
2022/06/18 09:49:07;;;;;;;2.72;1.00;;;34.50;34.50;;;;;;4975908;28;20046;-74
2022/06/18 09:51:51;;;;;;;1.88;1.00;;;34.60;34.70;;;;;;4979056;28;20065;-75
2022/06/18 09:54:17;;;;;;;1.27;1.00;;;34.80;33.90;;;;;;4997888;28;20026;-75
2022/06/18 09:56:46;;;;;;;3.78;1.10;;;35.00;34.20;;;;;;5005688;28;20042;-75
2022/06/18 09:59:14;;;;;;;2.25;1.13;;;35.20;33.80;;;;;;5020522;28;20030;-75
2022/06/18 10:01:45;;;;;;;1.75;0.85;;;35.40;33.40;;;;;;4982754;28;20037;-76
2022/06/18 10:07:11;;;;;;;1.58;1.05;;;35.70;32.80;;;;;;5017574;28;20048;-75
2022/06/18 10:09:42;;;;;;;1.15;0.95;;;35.80;32.60;;;;;;5025822;28;20041;-75
2022/06/18 10:12:24;;;;;;;1.05;0.95;;;36.00;32.30;;;;;;5037321;28;20045;-74
2022/06/18 10:14:55;;;;;;;2.15;0.90;;;36.10;31.60;;;;;;5026891;28;20040;-76
2022/06/18 10:17:20;;;;;;;;;;;36.40;31.90;;;;;;5000209;28;20084;-75
2022/06/18 10:19:49;;;;;;;2.05;1.25;;;36.50;32.00;;;;;;5028100;28;20428;-75
2022/06/18 10:22:38;;;;;;;2.65;1.02;;;36.60;31.80;;;;;;5022661;28;20049;-75
2022/06/18 10:25:08;;;;;;;3.65;1.42;;;36.70;30.40;;;;;;4991272;28;20124;-75
2022/06/18 10:27:40;;;;;;;2.25;1.10;;;36.80;31.10;;;;;;5016173;28;20064;-75
2022/06/18 10:30:42;;;;;;;3.63;1.70;;;36.90;30.90;;;;;;5020077;28;20101;-74
2022/06/18 10:33:26;;;;;;;3.92;1.23;;;37.10;30.70;;;;;;4932762;28;20046;-75
2022/06/18 10:36:15;;;;;;;3.38;1.20;;;37.30;30.10;;;;;;4923888;29;20046;-75
2022/06/18 10:38:55;;;;;;;2.63;1.27;;;37.50;30.20;;;;;;4934342;28;20111;-75
2022/06/18 10:41:28;;;;;;;;;;;37.60;29.50;;;;;;4921946;28;20050;-75
2022/06/18 10:44:02;;;;;;;2.60;1.40;;;37.80;30.10;;;;;;4916501;28;19918;-75
2022/06/18 10:46:28;;;;;;;1.55;1.20;;;37.90;29.90;;;;;;4947386;28;20040;-75
2022/06/18 10:48:57;;;;;;;3.10;1.20;;;38.00;29.80;;;;;;4937846;28;20107;-75
2022/06/18 10:51:24;;;;;;;6.15;1.55;;;38.20;29.40;;;;;;4919363;28;20043;-75
2022/06/18 10:53:52;;;;;;;2.70;1.15;;;38.30;29.10;;;;;;4932015;29;20175;-75
2022/06/18 10:56:20;;;;;;;2.30;1.30;;;38.50;28.90;;;;;;4925689;28;20048;-75
2022/06/18 10:58:48;;;;;;;4.15;1.40;;;38.50;28.60;;;;;;4952727;28;20553;-75
2022/06/18 11:01:13;;;;;;;2.83;1.00;;;38.70;28.50;;;;;;4935267;28;20063;-75
2022/06/18 11:03:39;;;;;;;5.30;1.30;;;38.80;28.30;;;;;;4941213;28;20063;-75
2022/06/18 11:06:14;;;;;;;5.10;1.48;;;39.00;28.10;;;;;;4922693;28;20142;-76
2022/06/18 11:08:51;;;;;;;3.28;1.20;;;39.10;27.50;;;;;;5023869;28;20038;-76
2022/06/18 11:11:24;;;;;;;3.42;1.38;;;39.30;27.50;;;;;;5018203;28;20113;-74
2022/06/18 11:13:50;;;;;;;6.68;1.15;;;39.40;27.60;;;;;;5040149;28;20037;-76
2022/06/18 11:16:24;;;;;;;3.70;1.35;;;39.50;27.60;;;;;;5043915;28;20129;-75
2022/06/18 11:18:51;;;;;;;6.53;1.67;;;39.60;27.20;;;;;;5018451;28;20068;-75
2022/06/18 11:21:28;;;;;;;6.30;1.60;;;39.70;27.20;;;;;;5028343;28;20032;-76
2022/06/18 11:23:59;;;;;;;5.40;1.50;;;39.80;26.80;;;;;;5016642;28;20025;-75
2022/06/18 11:26:25;;;;;;;4.35;1.52;;;39.90;26.70;;;;;;5009590;28;20530;-75
2022/06/18 11:28:52;;;;;;;13.70;1.70;;;40.00;26.70;;;;;;5023947;28;20068;-75
2022/06/18 11:31:25;;;;;;;6.07;1.80;;;40.20;26.70;;;;;;5011072;28;20029;-75
2022/06/18 11:34:19;;;;;;;5.32;1.60;;;40.30;26.30;;;;;;5030328;28;20045;-75
2022/06/18 11:36:49;;;;;;;4.40;1.40;;;40.30;25.70;;;;;;5041323;28;20041;-75
2022/06/18 11:39:34;;;;;;;5.03;1.50;;;40.40;25.90;;;;;;5036221;28;20041;-75
2022/06/18 11:42:04;;;;;;;6.50;1.73;;;40.60;25.40;;;;;;5003229;28;20094;-76
2022/06/18 11:44:43;;;;;;;7.60;1.77;;;40.70;25.80;;;;;;5002999;28;20069;-76
2022/06/18 11:47:30;;;;;;;9.90;2.20;;;40.80;25.30;;;;;;5010688;28;20060;-75
2022/06/18 11:50:00;;;;;;;7.85;2.08;;;40.80;25.10;;;;;;5013424;28;20056;-74
2022/06/18 11:53:10;;;;;;;10.52;2.13;;;40.90;25.20;;;;;;5013277;28;20255;-74
2022/06/18 11:55:43;;;;;;;7.07;1.95;;;40.90;25.30;;;;;;4988299;28;20130;-75
2022/06/18 11:58:19;;;;;;;9.68;2.17;;;40.90;25.10;;;;;;4990298;28;20041;-75
2022/06/18 12:00:46;;;;;;;9.27;1.77;;;40.90;25.10;;;;;;5009566;28;20030;-75
2022/06/18 12:03:34;;;;;;;8.68;1.70;;;41.00;25.60;;;;;;4995737;28;20069;-75
2022/06/18 12:06:17;;;;;;;8.85;1.70;;;41.10;24.90;;;;;;4998040;28;20045;-75
2022/06/18 12:08:42;;;;;;;5.72;1.63;;;41.10;24.90;;;;;;5009149;28;20037;-76
2022/06/18 12:11:27;;;;;;;6.63;1.77;;;41.20;25.00;;;;;;4998298;28;20060;-75
2022/06/18 12:14:10;;;;;;;4.65;1.40;;;41.20;24.70;;;;;;5008080;28;20084;-75
2022/06/18 12:16:44;;;;;;;8.10;1.95;;;41.30;24.60;;;;;;5013016;28;20030;-75
2022/06/18 12:19:26;;;;;;;4.93;1.73;;;41.40;24.70;;;;;;5038957;28;20032;-75
2022/06/18 12:22:18;;;;;;;7.53;1.65;;;41.50;24.60;;;;;;5010545;28;20034;-75
2022/06/18 12:25:15;;;;;;;10.52;2.70;;;41.60;24.60;;;;;;5006645;28;20084;-76
2022/06/18 12:28:15;;;;;;;11.75;2.42;;;41.80;24.00;;;;;;5011521;28;20037;-75
2022/06/18 12:30:49;;;;;;;10.02;1.83;;;41.80;24.00;;;;;;5013137;28;20041;-75
2022/06/18 12:33:18;;;;;;;10.55;2.15;;;42.00;24.30;;;;;;5012402;28;20734;-75
2022/06/18 12:35:47;;;;;;;8.60;1.80;;;42.10;24.30;;;;;;4990451;28;20058;-76
2022/06/18 12:38:31;;;;;;;10.65;1.73;;;42.00;24.10;;;;;;5000769;28;20025;-75
2022/06/18 12:41:07;;;;;;;9.35;2.10;;;42.10;24.10;;;;;;5027538;28;20033;-75
2022/06/18 12:43:44;;;;;;;8.45;2.00;;;42.10;23.60;;;;;;5009390;28;20091;-75
2022/06/18 12:46:39;;;;;;;5.50;1.40;;;42.10;23.70;;;;;;5040638;28;20514;-75
2022/06/18 12:49:30;;;;;;;9.00;1.55;;;42.20;23.30;;;;;;4984475;28;20037;-75
2022/06/18 12:52:13;;;;;;;9.10;1.75;;;42.30;23.50;;;;;;5022777;28;20041;-75
2022/06/18 12:54:54;;;;;;;9.63;2.13;;;42.30;23.30;;;;;;5003868;28;20043;-75
2022/06/18 12:57:30;;;;;;;9.10;1.95;;;42.30;23.00;;;;;;5014154;28;20041;-76
2022/06/18 13:00:03;;;;;;;11.90;2.28;;;42.40;23.40;;;;;;5010078;28;20052;-74
2022/06/18 13:02:42;;;;;;;9.70;2.25;;;42.50;23.60;;;;;;5028577;28;20536;-75
2022/06/18 13:05:23;;;;;;;7.28;2.13;;;42.50;22.90;;;;;;5026010;28;20053;-75
2022/06/18 13:07:58;;;;;;;11.48;2.33;;;42.60;23.10;;;;;;5021678;28;20855;-75
2022/06/18 13:10:41;;;;;;;13.43;2.47;;;42.70;23.00;;;;;;5006154;28;20037;-75
2022/06/18 13:13:31;;;;;;;10.52;2.65;;;42.80;22.90;;;;;;5026458;28;20036;-75
2022/06/18 13:16:04;;;;;;;8.60;2.30;;;42.80;22.80;;;;;;5033214;28;20045;-75
2022/06/18 13:18:35;;;;;;;12.15;2.40;;;42.90;22.80;;;;;;5014429;28;20041;-75